sensor_id;sensor_type;location;lat;lon;timestamp;pressure;altitude;pressure_sealevel;temperature;humidity
5522;BME280;2783;48.730;8.006;2023-07-30T00:02:19;99646.78;;;21.80;100.00
5522;BME280;2783;48.730;8.006;2023-07-30T00:04:45;99655.28;;;21.76;100.00
5522;BME280;2783;48.730;8.006;2023-07-30T00:07:11;99651.22;;;21.70;100.00
5522;BME280;2783;48.730;8.006;2023-07-30T00:09:37;99640.41;;;21.70;100.00
5522;BME280;2783;48.730;8.006;2023-07-30T00:12:04;99644.94;;;21.70;100.00
5522;BME280;2783;48.730;8.006;2023-07-30T00:14:30;99648.38;;;21.72;100.00
5522;BME280;2783;48.730;8.006;2023-07-30T00:16:55;99659.34;;;21.70;100.00
5522;BME280;2783;48.730;8.006;2023-07-30T00:19:21;99646.69;;;21.71;100.00
5522;BME280;2783;48.730;8.006;2023-07-30T00:21:47;99659.47;;;21.69;100.00
5522;BME280;2783;48.730;8.006;2023-07-30T00:24:13;99655.06;;;21.68;100.00
5522;BME280;2783;48.730;8.006;2023-07-30T00:26:38;99668.34;;;21.71;100.00
5522;BME280;2783;48.730;8.006;2023-07-30T00:29:04;99668.22;;;21.72;100.00
5522;BME280;2783;48.730;8.006;2023-07-30T00:31:29;99668.69;;;21.66;100.00
5522;BME280;2783;48.730;8.006;2023-07-30T00:33:55;99670.56;;;21.66;100.00
5522;BME280;2783;48.730;8.006;2023-07-30T00:36:20;99672.28;;;21.67;100.00
5522;BME280;2783;48.730;8.006;2023-07-30T00:38:46;99664.56;;;21.62;100.00
5522;BME280;2783;48.730;8.006;2023-07-30T00:41:11;99664.94;;;21.58;100.00
5522;BME280;2783;48.730;8.006;2023-07-30T00:43:36;99671.06;;;21.60;100.00
5522;BME280;2783;48.730;8.006;2023-07-30T00:46:02;99669.34;;;21.59;100.00
5522;BME280;2783;48.730;8.006;2023-07-30T00:48:28;99673.78;;;21.60;100.00
5522;BME280;2783;48.730;8.006;2023-07-30T00:50:53;99671.06;;;21.60;100.00
5522;BME280;2783;48.730;8.006;2023-07-30T00:53:22;99662.22;;;21.58;100.00
5522;BME280;2783;48.730;8.006;2023-07-30T00:55:47;99670.22;;;21.59;100.00
5522;BME280;2783;48.730;8.006;2023-07-30T00:58:13;99672.81;;;21.61;100.00
5522;BME280;2783;48.730;8.006;2023-07-30T01:00:39;99674.03;;;21.57;100.00
5522;BME280;2783;48.730;8.006;2023-07-30T01:03:05;99676.25;;;21.52;100.00
5522;BME280;2783;48.730;8.006;2023-07-30T01:05:31;99678.84;;;21.53;100.00
5522;BME280;2783;48.730;8.006;2023-07-30T01:07:56;99679.69;;;21.54;100.00
5522;BME280;2783;48.730;8.006;2023-07-30T01:10:22;99677.88;;;21.54;100.00
5522;BME280;2783;48.730;8.006;2023-07-30T01:12:48;99678.25;;;21.50;100.00
5522;BME280;2783;48.730;8.006;2023-07-30T01:15:14;99669.66;;;21.45;100.00
5522;BME280;2783;48.730;8.006;2023-07-30T01:17:40;99670.63;;;21.44;100.00
5522;BME280;2783;48.730;8.006;2023-07-30T01:20:06;99677.16;;;21.41;100.00
5522;BME280;2783;48.730;8.006;2023-07-30T01:22:32;99680.00;;;21.40;100.00
5522;BME280;2783;48.730;8.006;2023-07-30T01:24:57;99681.97;;;21.38;100.00
5522;BME280;2783;48.730;8.006;2023-07-30T01:27:26;99681.34;;;21.34;100.00
5522;BME280;2783;48.730;8.006;2023-07-30T01:30:16;99676.19;;;21.31;100.00
5522;BME280;2783;48.730;8.006;2023-07-30T01:32:43;99676.66;;;21.25;100.00
5522;BME280;2783;48.730;8.006;2023-07-30T01:35:11;99689.34;;;21.25;100.00
5522;BME280;2783;48.730;8.006;2023-07-30T01:37:39;99682.81;;;21.27;100.00
5522;BME280;2783;48.730;8.006;2023-07-30T01:40:07;99681.84;;;21.28;100.00
5522;BME280;2783;48.730;8.006;2023-07-30T01:42:34;99690.47;;;21.33;100.00
5522;BME280;2783;48.730;8.006;2023-07-30T01:44:59;99692.16;;;21.34;100.00
5522;BME280;2783;48.730;8.006;2023-07-30T01:47:25;99697.47;;;21.36;100.00
5522;BME280;2783;48.730;8.006;2023-07-30T01:49:50;99685.63;;;21.37;100.00
5522;BME280;2783;48.730;8.006;2023-07-30T01:52:15;99692.78;;;21.38;100.00
5522;BME280;2783;48.730;8.006;2023-07-30T01:54:41;99696.72;;;21.34;100.00
5522;BME280;2783;48.730;8.006;2023-07-30T01:57:07;99691.03;;;21.37;100.00
5522;BME280;2783;48.730;8.006;2023-07-30T01:59:33;99695.22;;;21.41;100.00
5522;BME280;2783;48.730;8.006;2023-07-30T02:01:58;99695.97;;;21.43;100.00
5522;BME280;2783;48.730;8.006;2023-07-30T02:04:23;99693.13;;;21.44;100.00
5522;BME280;2783;48.730;8.006;2023-07-30T02:06:49;99689.31;;;21.47;100.00
5522;BME280;2783;48.730;8.006;2023-07-30T02:09:14;99681.19;;;21.47;100.00
5522;BME280;2783;48.730;8.006;2023-07-30T02:11:39;99670.38;;;21.47;100.00
5522;BME280;2783;48.730;8.006;2023-07-30T02:14:05;99677.25;;;21.51;100.00
5522;BME280;2783;48.730;8.006;2023-07-30T02:16:30;99685.13;;;21.54;100.00
5522;BME280;2783;48.730;8.006;2023-07-30T02:18:56;99679.56;;;21.55;100.00
5522;BME280;2783;48.730;8.006;2023-07-30T02:21:21;99672.09;;;21.48;100.00
5522;BME280;2783;48.730;8.006;2023-07-30T02:23:46;99673.69;;;21.50;100.00
5522;BME280;2783;48.730;8.006;2023-07-30T02:26:12;99675.28;;;21.53;100.00
5522;BME280;2783;48.730;8.006;2023-07-30T02:28:37;99675.91;;;21.56;100.00
5522;BME280;2783;48.730;8.006;2023-07-30T02:31:02;99665.91;;;21.57;100.00
5522;BME280;2783;48.730;8.006;2023-07-30T02:33:28;99667.66;;;21.58;100.00
5522;BME280;2783;48.730;8.006;2023-07-30T02:35:53;99669.75;;;21.54;100.00
5522;BME280;2783;48.730;8.006;2023-07-30T02:38:19;99676.13;;;21.53;100.00
5522;BME280;2783;48.730;8.006;2023-07-30T02:40:44;99664.81;;;21.48;100.00
5522;BME280;2783;48.730;8.006;2023-07-30T02:43:09;99660.41;;;21.47;100.00
5522;BME280;2783;48.730;8.006;2023-07-30T02:45:35;99663.75;;;21.40;100.00
5522;BME280;2783;48.730;8.006;2023-07-30T02:48:00;99676.53;;;21.38;100.00
5522;BME280;2783;48.730;8.006;2023-07-30T02:50:25;99673.09;;;21.36;100.00
5522;BME280;2783;48.730;8.006;2023-07-30T02:52:51;99674.81;;;21.37;100.00
5522;BME280;2783;48.730;8.006;2023-07-30T02:55:16;99680.22;;;21.37;100.00
5522;BME280;2783;48.730;8.006;2023-07-30T02:57:42;99674.81;;;21.37;100.00
5522;BME280;2783;48.730;8.006;2023-07-30T03:00:07;99678.63;;;21.34;100.00
5522;BME280;2783;48.730;8.006;2023-07-30T03:02:34;99692.78;;;21.38;100.00
5522;BME280;2783;48.730;8.006;2023-07-30T03:04:59;99701.66;;;21.40;100.00
5522;BME280;2783;48.730;8.006;2023-07-30T03:07:25;99701.66;;;21.40;100.00
5522;BME280;2783;48.730;8.006;2023-07-30T03:09:51;99701.38;;;21.43;100.00
5522;BME280;2783;48.730;8.006;2023-07-30T03:12:16;99702.34;;;21.42;100.00
5522;BME280;2783;48.730;8.006;2023-07-30T03:14:42;99699.66;;;21.42;100.00
5522;BME280;2783;48.730;8.006;2023-07-30T03:17:07;99702.34;;;21.42;100.00
5522;BME280;2783;48.730;8.006;2023-07-30T03:19:32;99705.94;;;21.42;100.00
5522;BME280;2783;48.730;8.006;2023-07-30T03:21:58;99705.06;;;21.42;100.00
5522;BME280;2783;48.730;8.006;2023-07-30T03:24:23;99708.75;;;21.41;100.00
5522;BME280;2783;48.730;8.006;2023-07-30T03:26:48;99715.19;;;21.40;100.00
5522;BME280;2783;48.730;8.006;2023-07-30T03:29:14;99713.31;;;21.40;100.00
5522;BME280;2783;48.730;8.006;2023-07-30T03:31:40;99710.59;;;21.40;100.00
5522;BME280;2783;48.730;8.006;2023-07-30T03:34:05;99716.13;;;21.39;100.00
5522;BME280;2783;48.730;8.006;2023-07-30T03:36:31;99718.84;;;21.39;100.00
5522;BME280;2783;48.730;8.006;2023-07-30T03:38:56;99726.47;;;21.34;100.00
5522;BME280;2783;48.730;8.006;2023-07-30T03:41:22;99728.44;;;21.32;100.00
5522;BME280;2783;48.730;8.006;2023-07-30T03:43:47;99732.00;;;21.32;100.00
5522;BME280;2783;48.730;8.006;2023-07-30T03:46:13;99730.06;;;21.34;100.00
5522;BME280;2783;48.730;8.006;2023-07-30T03:48:38;99731.16;;;21.32;100.00
5522;BME280;2783;48.730;8.006;2023-07-30T03:51:04;99728.44;;;21.32;100.00
5522;BME280;2783;48.730;8.006;2023-07-30T03:53:29;99730.44;;;21.30;100.00
5522;BME280;2783;48.730;8.006;2023-07-30T03:55:54;99721.81;;;21.25;100.00
5522;BME280;2783;48.730;8.006;2023-07-30T03:58:20;99720.84;;;21.26;100.00
5522;BME280;2783;48.730;8.006;2023-07-30T04:00:45;99726.63;;;21.21;100.00
5522;BME280;2783;48.730;8.006;2023-07-30T04:03:11;99724.03;;;21.20;100.00
5522;BME280;2783;48.730;8.006;2023-07-30T04:05:36;99729.31;;;21.21;100.00
5522;BME280;2783;48.730;8.006;2023-07-30T04:08:02;99739.41;;;21.19;100.00
5522;BME280;2783;48.730;8.006;2023-07-30T04:10:27;99746.56;;;21.20;100.00
5522;BME280;2783;48.730;8.006;2023-07-30T04:12:52;99744.94;;;21.18;100.00
5522;BME280;2783;48.730;8.006;2023-07-30T04:15:18;99746.66;;;21.19;100.00
5522;BME280;2783;48.730;8.006;2023-07-30T04:17:43;99746.66;;;21.19;100.00
5522;BME280;2783;48.730;8.006;2023-07-30T04:20:09;99747.41;;;21.21;100.00
5522;BME280;2783;48.730;8.006;2023-07-30T04:22:35;99740.66;;;21.15;100.00
5522;BME280;2783;48.730;8.006;2023-07-30T04:25:01;99749.13;;;21.22;100.00
5522;BME280;2783;48.730;8.006;2023-07-30T04:27:27;99752.69;;;21.22;100.00
5522;BME280;2783;48.730;8.006;2023-07-30T04:29:53;99748.38;;;21.20;100.00
5522;BME280;2783;48.730;8.006;2023-07-30T04:32:18;99754.75;;;21.19;100.00
5522;BME280;2783;48.730;8.006;2023-07-30T04:34:43;99749.13;;;21.22;100.00
5522;BME280;2783;48.730;8.006;2023-07-30T04:37:09;99747.53;;;21.19;100.00
5522;BME280;2783;48.730;8.006;2023-07-30T04:39:35;99741.25;;;21.19;100.00
5522;BME280;2783;48.730;8.006;2023-07-30T04:42:01;99754.88;;;21.17;100.00
5522;BME280;2783;48.730;8.006;2023-07-30T04:44:27;99753.81;;;21.20;100.00
5522;BME280;2783;48.730;8.006;2023-07-30T04:46:52;99757.47;;;21.19;100.00
5522;BME280;2783;48.730;8.006;2023-07-30T04:49:17;99761.16;;;21.18;100.00
5522;BME280;2783;48.730;8.006;2023-07-30T04:51:43;99752.94;;;21.19;100.00
5522;BME280;2783;48.730;8.006;2023-07-30T04:54:08;99761.16;;;21.18;100.00
5522;BME280;2783;48.730;8.006;2023-07-30T04:56:33;99752.31;;;21.16;100.00
5522;BME280;2783;48.730;8.006;2023-07-30T04:59:00;99756.88;;;21.15;100.00
5522;BME280;2783;48.730;8.006;2023-07-30T05:01:26;99742.00;;;21.10;100.00
5522;BME280;2783;48.730;8.006;2023-07-30T05:03:51;99761.16;;;21.18;100.00
5522;BME280;2783;48.730;8.006;2023-07-30T05:06:16;99768.06;;;21.22;100.00
5522;BME280;2783;48.730;8.006;2023-07-30T05:08:42;99745.69;;;21.20;100.00
5522;BME280;2783;48.730;8.006;2023-07-30T05:11:07;99781.31;;;21.47;100.00
5522;BME280;2783;48.730;8.006;2023-07-30T05:13:33;99780.59;;;21.56;100.00
5522;BME280;2783;48.730;8.006;2023-07-30T05:15:58;99783.78;;;21.61;100.00
5522;BME280;2783;48.730;8.006;2023-07-30T05:18:23;99776.28;;;21.64;100.00
5522;BME280;2783;48.730;8.006;2023-07-30T05:20:49;99767.16;;;21.65;100.00
5522;BME280;2783;48.730;8.006;2023-07-30T05:23:15;99772.84;;;21.62;100.00
5522;BME280;2783;48.730;8.006;2023-07-30T05:25:40;99767.16;;;21.65;100.00
5522;BME280;2783;48.730;8.006;2023-07-30T05:28:05;99766.06;;;21.68;100.00
5522;BME280;2783;48.730;8.006;2023-07-30T05:30:31;99761.63;;;21.67;100.00
5522;BME280;2783;48.730;8.006;2023-07-30T05:32:56;99764.81;;;21.72;100.00
5522;BME280;2783;48.730;8.006;2023-07-30T05:35:22;99772.94;;;21.72;100.00
5522;BME280;2783;48.730;8.006;2023-07-30T05:37:47;99775.78;;;21.70;100.00
5522;BME280;2783;48.730;8.006;2023-07-30T05:40:13;99782.31;;;21.68;100.00
5522;BME280;2783;48.730;8.006;2023-07-30T05:42:38;99778.72;;;21.67;100.00
5522;BME280;2783;48.730;8.006;2023-07-30T05:45:04;99783.28;;;21.67;100.00
5522;BME280;2783;48.730;8.006;2023-07-30T05:47:29;99786.00;;;21.67;100.00
5522;BME280;2783;48.730;8.006;2023-07-30T05:49:54;99789.44;;;21.69;100.00
5522;BME280;2783;48.730;8.006;2023-07-30T05:52:20;99782.31;;;21.68;100.00
5522;BME280;2783;48.730;8.006;2023-07-30T05:54:45;99793.16;;;21.68;100.00
5522;BME280;2783;48.730;8.006;2023-07-30T05:57:11;99793.25;;;21.66;100.00
5522;BME280;2783;48.730;8.006;2023-07-30T05:59:36;99805.06;;;21.65;100.00
5522;BME280;2783;48.730;8.006;2023-07-30T06:02:02;99794.50;;;21.62;100.00
5522;BME280;2783;48.730;8.006;2023-07-30T06:04:29;99811.47;;;21.64;100.00
5522;BME280;2783;48.730;8.006;2023-07-30T06:06:54;99816.78;;;21.66;100.00
5522;BME280;2783;48.730;8.006;2023-07-30T06:09:19;99811.47;;;21.64;100.00
5522;BME280;2783;48.730;8.006;2023-07-30T06:11:45;99819.09;;;21.70;100.00
5522;BME280;2783;48.730;8.006;2023-07-30T06:14:10;99810.50;;;21.76;100.00
5522;BME280;2783;48.730;8.006;2023-07-30T06:16:36;99820.97;;;21.81;100.00
5522;BME280;2783;48.730;8.006;2023-07-30T06:19:01;99823.91;;;21.78;100.00
5522;BME280;2783;48.730;8.006;2023-07-30T06:21:26;99832.50;;;21.72;100.00
5522;BME280;2783;48.730;8.006;2023-07-30T06:23:52;99831.06;;;21.68;100.00
5522;BME280;2783;48.730;8.006;2023-07-30T06:26:18;99828.09;;;21.71;100.00
5522;BME280;2783;48.730;8.006;2023-07-30T06:28:43;99836.81;;;21.74;100.00
5522;BME280;2783;48.730;8.006;2023-07-30T06:31:09;99835.72;;;21.77;100.00
5522;BME280;2783;48.730;8.006;2023-07-30T06:33:34;99840.63;;;21.83;100.00
5522;BME280;2783;48.730;8.006;2023-07-30T06:36:00;99844.09;;;21.85;100.00
5522;BME280;2783;48.730;8.006;2023-07-30T06:38:25;99849.03;;;21.91;100.00
5522;BME280;2783;48.730;8.006;2023-07-30T06:40:51;99838.56;;;21.97;100.00
5522;BME280;2783;48.730;8.006;2023-07-30T06:43:16;99847.63;;;22.07;100.00
5522;BME280;2783;48.730;8.006;2023-07-30T06:45:42;99837.44;;;22.00;100.00
5522;BME280;2783;48.730;8.006;2023-07-30T06:48:08;99858.34;;;22.09;100.00
5522;BME280;2783;48.730;8.006;2023-07-30T06:50:33;99855.00;;;22.16;100.00
5522;BME280;2783;48.730;8.006;2023-07-30T06:52:59;99842.81;;;22.22;100.00
5522;BME280;2783;48.730;8.006;2023-07-30T06:55:24;99858.03;;;22.34;100.00
5522;BME280;2783;48.730;8.006;2023-07-30T06:57:50;99858.72;;;22.47;100.00
5522;BME280;2783;48.730;8.006;2023-07-30T07:00:15;99858.72;;;22.47;100.00
5522;BME280;2783;48.730;8.006;2023-07-30T07:02:47;99869.31;;;22.61;100.00
5522;BME280;2783;48.730;8.006;2023-07-30T07:05:13;99867.03;;;22.77;100.00
5522;BME280;2783;48.730;8.006;2023-07-30T07:07:38;99873.13;;;22.90;100.00
5522;BME280;2783;48.730;8.006;2023-07-30T07:10:04;99879.94;;;23.05;100.00
5522;BME280;2783;48.730;8.006;2023-07-30T07:12:29;99876.19;;;23.17;100.00
5522;BME280;2783;48.730;8.006;2023-07-30T07:14:55;99878.16;;;23.15;100.00
5522;BME280;2783;48.730;8.006;2023-07-30T07:17:23;99890.16;;;23.13;100.00
5522;BME280;2783;48.730;8.006;2023-07-30T07:19:49;99889.28;;;23.12;100.00
5522;BME280;2783;48.730;8.006;2023-07-30T07:22:14;99875.31;;;23.17;100.00
5522;BME280;2783;48.730;8.006;2023-07-30T07:24:40;99868.50;;;23.22;100.00
5522;BME280;2783;48.730;8.006;2023-07-30T07:27:05;99885.06;;;23.19;100.00
5522;BME280;2783;48.730;8.006;2023-07-30T07:29:31;99875.13;;;23.29;100.00
5522;BME280;2783;48.730;8.006;2023-07-30T07:31:56;99871.19;;;23.33;100.00
5522;BME280;2783;48.730;8.006;2023-07-30T07:34:21;99856.31;;;23.17;100.00
5522;BME280;2783;48.730;8.006;2023-07-30T07:36:47;99877.34;;;23.24;100.00
5522;BME280;2783;48.730;8.006;2023-07-30T07:39:12;99874.91;;;23.32;100.00
5522;BME280;2783;48.730;8.006;2023-07-30T07:41:38;99886.13;;;23.49;100.00
5522;BME280;2783;48.730;8.006;2023-07-30T07:44:03;99891.38;;;23.71;100.00
5522;BME280;2783;48.730;8.006;2023-07-30T07:46:29;99891.75;;;23.87;100.00
5522;BME280;2783;48.730;8.006;2023-07-30T07:48:54;99897.56;;;24.03;100.00
5522;BME280;2783;48.730;8.006;2023-07-30T07:51:19;99903.88;;;24.03;100.00
5522;BME280;2783;48.730;8.006;2023-07-30T07:53:45;99891.25;;;24.02;99.72
5522;BME280;2783;48.730;8.006;2023-07-30T07:56:10;99891.34;;;23.91;98.55
5522;BME280;2783;48.730;8.006;2023-07-30T07:58:36;99888.59;;;23.82;97.19
5522;BME280;2783;48.730;8.006;2023-07-30T08:01:01;99898.00;;;23.78;95.99
5522;BME280;2783;48.730;8.006;2023-07-30T08:03:27;99894.53;;;23.76;94.82
5522;BME280;2783;48.730;8.006;2023-07-30T08:05:52;99903.75;;;23.84;94.46
5522;BME280;2783;48.730;8.006;2023-07-30T08:08:18;99901.19;;;23.92;93.63
5522;BME280;2783;48.730;8.006;2023-07-30T08:10:43;99897.28;;;24.06;94.51
5522;BME280;2783;48.730;8.006;2023-07-30T08:13:11;99899.03;;;24.07;94.70
5522;BME280;2783;48.730;8.006;2023-07-30T08:15:36;99892.13;;;24.03;90.95
5522;BME280;2783;48.730;8.006;2023-07-30T08:18:02;99901.91;;;24.15;91.04
5522;BME280;2783;48.730;8.006;2023-07-30T08:20:27;99910.28;;;24.42;92.12
5522;BME280;2783;48.730;8.006;2023-07-30T08:22:53;99900.59;;;24.68;92.76
5522;BME280;2783;48.730;8.006;2023-07-30T08:25:18;99898.31;;;24.73;87.07
5522;BME280;2783;48.730;8.006;2023-07-30T08:27:43;99904.78;;;24.91;85.88
5522;BME280;2783;48.730;8.006;2023-07-30T08:30:09;99905.22;;;24.77;83.59
5522;BME280;2783;48.730;8.006;2023-07-30T08:32:35;99899.97;;;24.55;80.87
5522;BME280;2783;48.730;8.006;2023-07-30T08:35:00;99911.31;;;24.60;81.02
5522;BME280;2783;48.730;8.006;2023-07-30T08:37:26;99898.75;;;24.78;80.22
5522;BME280;2783;48.730;8.006;2023-07-30T08:39:52;99903.75;;;24.73;76.98
5522;BME280;2783;48.730;8.006;2023-07-30T08:42:17;99916.31;;;24.55;76.24
5522;BME280;2783;48.730;8.006;2023-07-30T08:44:43;99908.53;;;24.31;76.89
5522;BME280;2783;48.730;8.006;2023-07-30T08:47:09;99915.06;;;24.10;75.49
5522;BME280;2783;48.730;8.006;2023-07-30T08:49:35;99914.22;;;24.19;76.38
5522;BME280;2783;48.730;8.006;2023-07-30T08:52:02;99923.09;;;24.21;76.59
5522;BME280;2783;48.730;8.006;2023-07-30T08:54:30;99909.16;;;24.54;73.95
5522;BME280;2783;48.730;8.006;2023-07-30T08:56:59;99917.53;;;25.00;73.84
5522;BME280;2783;48.730;8.006;2023-07-30T08:59:27;99918.53;;;25.28;70.86
5522;BME280;2783;48.730;8.006;2023-07-30T09:01:57;99914.50;;;25.32;69.55
5522;BME280;2783;48.730;8.006;2023-07-30T09:04:23;99930.13;;;25.49;69.91
5522;BME280;2783;48.730;8.006;2023-07-30T09:06:49;99923.84;;;25.48;69.52
5522;BME280;2783;48.730;8.006;2023-07-30T09:09:15;99928.28;;;25.30;68.78
5522;BME280;2783;48.730;8.006;2023-07-30T09:11:40;99936.16;;;25.05;69.09
5522;BME280;2783;48.730;8.006;2023-07-30T09:14:06;99942.31;;;24.97;69.38
5522;BME280;2783;48.730;8.006;2023-07-30T09:16:32;99931.84;;;24.74;67.63
5522;BME280;2783;48.730;8.006;2023-07-30T09:18:57;99946.66;;;24.60;69.01
5522;BME280;2783;48.730;8.006;2023-07-30T09:21:31;99945.91;;;25.17;70.80
5522;BME280;2783;48.730;8.006;2023-07-30T09:23:57;99936.41;;;25.59;62.87
5522;BME280;2783;48.730;8.006;2023-07-30T09:26:23;99934.09;;;26.20;65.50
5522;BME280;2783;48.730;8.006;2023-07-30T09:28:48;99941.38;;;26.29;62.74
5522;BME280;2783;48.730;8.006;2023-07-30T09:31:14;99953.47;;;26.17;59.36
5522;BME280;2783;48.730;8.006;2023-07-30T09:33:42;99949.25;;;25.85;61.11
5522;BME280;2783;48.730;8.006;2023-07-30T09:36:08;99956.50;;;25.20;61.48
5522;BME280;2783;48.730;8.006;2023-07-30T09:38:42;99954.22;;;25.15;64.29
5522;BME280;2783;48.730;8.006;2023-07-30T09:41:08;99948.31;;;24.91;63.47
5522;BME280;2783;48.730;8.006;2023-07-30T09:43:35;99945.31;;;24.75;65.15
5522;BME280;2783;48.730;8.006;2023-07-30T09:46:06;99956.00;;;24.67;66.29
5522;BME280;2783;48.730;8.006;2023-07-30T09:48:33;99957.78;;;24.38;66.08
5522;BME280;2783;48.730;8.006;2023-07-30T09:51:00;99964.06;;;24.38;66.74
5522;BME280;2783;48.730;8.006;2023-07-30T09:53:32;99956.34;;;24.34;68.13
5522;BME280;2783;48.730;8.006;2023-07-30T09:56:04;99973.81;;;24.41;67.20
5522;BME280;2783;48.730;8.006;2023-07-30T09:58:31;99971.09;;;24.41;68.48
5522;BME280;2783;48.730;8.006;2023-07-30T10:01:00;99990.66;;;24.35;68.24
5522;BME280;2783;48.730;8.006;2023-07-30T10:03:26;99981.16;;;23.90;69.27
5522;BME280;2783;48.730;8.006;2023-07-30T10:05:55;99999.13;;;23.61;71.06
5522;BME280;2783;48.730;8.006;2023-07-30T10:08:26;100000.19;;;23.49;73.99
5522;BME280;2783;48.730;8.006;2023-07-30T10:10:54;99992.69;;;23.62;73.07
5522;BME280;2783;48.730;8.006;2023-07-30T10:13:21;100000.28;;;24.09;73.99
5522;BME280;2783;48.730;8.006;2023-07-30T10:15:47;100000.88;;;24.73;71.12
5522;BME280;2783;48.730;8.006;2023-07-30T10:18:13;100003.81;;;25.66;67.05
5522;BME280;2783;48.730;8.006;2023-07-30T10:20:39;100006.63;;;25.93;66.82
5522;BME280;2783;48.730;8.006;2023-07-30T10:23:05;100002.81;;;25.67;66.53
5522;BME280;2783;48.730;8.006;2023-07-30T10:25:45;100015.31;;;25.41;66.95
5522;BME280;2783;48.730;8.006;2023-07-30T10:28:37;100009.28;;;25.66;67.16
5522;BME280;2783;48.730;8.006;2023-07-30T10:31:08;100003.38;;;26.27;65.34
5522;BME280;2783;48.730;8.006;2023-07-30T10:33:50;100004.72;;;27.04;63.11
5522;BME280;2783;48.730;8.006;2023-07-30T10:36:49;100003.56;;;27.06;60.42
5522;BME280;2783;48.730;8.006;2023-07-30T10:39:19;100015.75;;;26.58;61.98
5522;BME280;2783;48.730;8.006;2023-07-30T10:41:48;100009.81;;;26.72;63.57
5522;BME280;2783;48.730;8.006;2023-07-30T10:44:25;100001.69;;;27.25;58.48
5522;BME280;2783;48.730;8.006;2023-07-30T10:47:01;100012.69;;;27.68;58.37
5522;BME280;2783;48.730;8.006;2023-07-30T10:49:27;99999.44;;;27.90;57.86
5522;BME280;2783;48.730;8.006;2023-07-30T10:51:57;100010.13;;;28.09;58.25
5522;BME280;2783;48.730;8.006;2023-07-30T10:54:23;100014.09;;;28.66;55.03
5522;BME280;2783;48.730;8.006;2023-07-30T10:56:49;100009.44;;;29.08;56.71
5522;BME280;2783;48.730;8.006;2023-07-30T10:59:15;100016.66;;;29.09;54.87
5522;BME280;2783;48.730;8.006;2023-07-30T11:01:43;100013.75;;;28.43;52.71
5522;BME280;2783;48.730;8.006;2023-07-30T11:04:19;100022.22;;;28.24;57.29
5522;BME280;2783;48.730;8.006;2023-07-30T11:06:49;100023.50;;;28.12;53.86
5522;BME280;2783;48.730;8.006;2023-07-30T11:11:45;100011.97;;;28.26;54.60
5522;BME280;2783;48.730;8.006;2023-07-30T11:14:21;100030.50;;;27.89;53.35
5522;BME280;2783;48.730;8.006;2023-07-30T11:16:51;100018.69;;;27.01;55.32
5522;BME280;2783;48.730;8.006;2023-07-30T11:19:17;100018.38;;;27.31;54.86
5522;BME280;2783;48.730;8.006;2023-07-30T11:21:47;100015.19;;;27.96;55.24
5522;BME280;2783;48.730;8.006;2023-07-30T11:24:12;100020.63;;;28.48;54.40
5522;BME280;2783;48.730;8.006;2023-07-30T11:26:38;100025.78;;;27.99;56.36
5522;BME280;2783;48.730;8.006;2023-07-30T11:29:19;100026.66;;;28.00;55.52
5522;BME280;2783;48.730;8.006;2023-07-30T11:31:46;100021.53;;;28.30;55.93
5522;BME280;2783;48.730;8.006;2023-07-30T11:34:15;100027.78;;;27.89;54.55
5522;BME280;2783;48.730;8.006;2023-07-30T11:36:42;100034.84;;;27.12;55.66
5522;BME280;2783;48.730;8.006;2023-07-30T11:39:08;100033.78;;;27.23;55.71
5522;BME280;2783;48.730;8.006;2023-07-30T11:41:35;100033.72;;;27.50;53.63
5522;BME280;2783;48.730;8.006;2023-07-30T11:44:00;100041.91;;;27.50;53.69
5522;BME280;2783;48.730;8.006;2023-07-30T11:46:26;100043.34;;;27.36;53.33
5522;BME280;2783;48.730;8.006;2023-07-30T11:48:53;100033.41;;;27.70;55.23
5522;BME280;2783;48.730;8.006;2023-07-30T11:51:35;100023.31;;;28.39;52.95
5522;BME280;2783;48.730;8.006;2023-07-30T11:54:01;100031.81;;;28.96;50.51
5522;BME280;2783;48.730;8.006;2023-07-30T11:56:31;100031.75;;;29.37;49.27
5522;BME280;2783;48.730;8.006;2023-07-30T11:59:07;100027.75;;;29.74;48.27
5522;BME280;2783;48.730;8.006;2023-07-30T12:01:34;100028.72;;;30.29;48.41
5522;BME280;2783;48.730;8.006;2023-07-30T12:04:01;100034.06;;;30.06;44.88
5522;BME280;2783;48.730;8.006;2023-07-30T12:06:44;100028.53;;;29.58;44.51
5522;BME280;2783;48.730;8.006;2023-07-30T12:09:14;100056.53;;;29.70;46.68
5522;BME280;2783;48.730;8.006;2023-07-30T12:11:53;100055.41;;;29.22;45.68
5522;BME280;2783;48.730;8.006;2023-07-30T12:14:23;100043.03;;;28.77;46.26
5522;BME280;2783;48.730;8.006;2023-07-30T12:16:50;100034.19;;;28.83;47.12
5522;BME280;2783;48.730;8.006;2023-07-30T12:19:16;100045.16;;;29.32;46.23
5522;BME280;2783;48.730;8.006;2023-07-30T12:21:41;100051.94;;;28.79;47.92
5522;BME280;2783;48.730;8.006;2023-07-30T12:24:07;100054.59;;;28.37;49.62
5522;BME280;2783;48.730;8.006;2023-07-30T12:26:32;100052.84;;;28.54;51.62
5522;BME280;2783;48.730;8.006;2023-07-30T12:28:58;100054.53;;;29.30;50.33
5522;BME280;2783;48.730;8.006;2023-07-30T12:31:23;100071.28;;;29.77;46.68
5522;BME280;2783;48.730;8.006;2023-07-30T12:33:48;100067.66;;;29.84;43.67
5522;BME280;2783;48.730;8.006;2023-07-30T12:36:14;100060.72;;;29.32;44.30
5522;BME280;2783;48.730;8.006;2023-07-30T12:38:39;100076.13;;;29.33;44.43
5522;BME280;2783;48.730;8.006;2023-07-30T12:41:05;100057.97;;;29.24;44.58
5522;BME280;2783;48.730;8.006;2023-07-30T12:43:30;100069.88;;;29.73;45.41
5522;BME280;2783;48.730;8.006;2023-07-30T12:45:56;100070.06;;;29.87;43.61
5522;BME280;2783;48.730;8.006;2023-07-30T12:48:21;100067.66;;;30.00;43.49
5522;BME280;2783;48.730;8.006;2023-07-30T12:50:47;100064.41;;;30.05;42.87
5522;BME280;2783;48.730;8.006;2023-07-30T12:53:12;100056.66;;;29.44;43.57
5522;BME280;2783;48.730;8.006;2023-07-30T12:55:38;100066.47;;;29.13;44.57
5522;BME280;2783;48.730;8.006;2023-07-30T12:58:04;100076.97;;;28.84;43.18
5522;BME280;2783;48.730;8.006;2023-07-30T13:00:30;100074.59;;;28.89;44.87
5522;BME280;2783;48.730;8.006;2023-07-30T13:02:55;100072.78;;;28.72;44.74
5522;BME280;2783;48.730;8.006;2023-07-30T13:05:22;100081.09;;;28.54;45.13
5522;BME280;2783;48.730;8.006;2023-07-30T13:07:47;100088.91;;;28.23;44.65
5522;BME280;2783;48.730;8.006;2023-07-30T13:10:13;100092.19;;;28.09;45.29
5522;BME280;2783;48.730;8.006;2023-07-30T13:12:38;100095.09;;;27.73;44.78